createdAt,value
2022-11-30T00:01:44.525Z,13.55
2022-11-30T00:04:17.427Z,15.02
2022-11-30T00:06:50.482Z,13.32
2022-11-30T00:09:25.548Z,13.50
2022-11-30T00:11:58.547Z,13.57
2022-11-30T00:14:31.919Z,15.13
2022-11-30T00:17:04.992Z,13.98
2022-11-30T00:19:38.019Z,15.20
2022-11-30T00:22:10.894Z,13.68
2022-11-30T00:24:44.052Z,15.25
2022-11-30T00:27:16.998Z,13.98
2022-11-30T00:29:49.697Z,14.43
2022-11-30T00:32:22.552Z,15.98
2022-11-30T00:34:55.355Z,14.18
2022-11-30T00:37:28.321Z,15.88
2022-11-30T00:40:01.552Z,15.90
2022-11-30T00:42:34.517Z,14.00
2022-11-30T00:45:08.496Z,14.32
2022-11-30T00:47:41.795Z,13.82
2022-11-30T00:50:15.042Z,13.23
2022-11-30T00:52:47.939Z,14.07
2022-11-30T00:55:20.835Z,13.48
2022-11-30T00:57:54.434Z,13.20
2022-11-30T01:00:28.345Z,16.45
2022-11-30T01:03:01.522Z,13.40
2022-11-30T01:05:35.364Z,14.65
2022-11-30T01:08:11.364Z,15.15
2022-11-30T01:10:45.141Z,15.35
2022-11-30T01:13:18.078Z,14.90
2022-11-30T01:15:51.253Z,15.68
2022-11-30T01:18:24.688Z,13.32
2022-11-30T01:20:57.692Z,12.45
2022-11-30T01:23:30.543Z,14.80
2022-11-30T01:26:04.032Z,14.00
2022-11-30T01:28:37.332Z,12.95
2022-11-30T01:31:14.344Z,13.82
2022-11-30T01:33:55.474Z,13.48
2022-11-30T01:36:28.162Z,13.13
2022-11-30T01:39:00.783Z,12.43
2022-11-30T01:41:33.595Z,12.20
2022-11-30T01:44:06.194Z,10.85
2022-11-30T01:46:55.144Z,11.73
2022-11-30T01:49:38.228Z,12.07
2022-11-30T01:52:17.382Z,12.55
2022-11-30T01:55:14.580Z,11.43
2022-11-30T01:58:24.104Z,10.95
2022-11-30T02:00:57.123Z,11.50
2022-11-30T02:04:24.140Z,12.25
2022-11-30T02:07:03.397Z,10.35
2022-11-30T02:09:44.922Z,10.48
2022-11-30T02:13:10.634Z,11.57
2022-11-30T02:16:10.733Z,12.20
2022-11-30T02:19:11.701Z,11.82
2022-11-30T02:22:22.397Z,11.18
2022-11-30T02:25:14.074Z,10.75
2022-11-30T02:28:18.912Z,11.70
2022-11-30T02:30:54.626Z,9.90
2022-11-30T02:33:33.030Z,9.77
2022-11-30T02:36:09.899Z,10.93
2022-11-30T02:38:43.165Z,10.13
2022-11-30T02:41:16.011Z,9.27
2022-11-30T02:43:49.348Z,9.45
2022-11-30T02:46:54.494Z,9.77
2022-11-30T02:49:42.388Z,9.35
2022-11-30T02:52:19.435Z,8.35
2022-11-30T02:54:58.593Z,8.82
2022-11-30T02:57:31.279Z,9.43
2022-11-30T03:00:10.189Z,8.40
2022-11-30T03:02:43.180Z,8.48
2022-11-30T03:05:16.119Z,8.48
2022-11-30T03:07:48.918Z,8.73
2022-11-30T03:10:21.982Z,8.57
2022-11-30T03:12:59.570Z,9.68
2022-11-30T03:15:32.383Z,8.93
2022-11-30T03:18:06.546Z,8.65
2022-11-30T03:20:43.257Z,10.27
2022-11-30T03:23:16.154Z,8.55
2022-11-30T03:25:48.968Z,7.90
2022-11-30T03:28:21.974Z,8.18
2022-11-30T03:30:55.065Z,8.60
2022-11-30T03:33:27.798Z,8.25
2022-11-30T03:36:07.700Z,7.63
2022-11-30T03:38:40.753Z,8.20
2022-11-30T03:41:16.971Z,8.50
2022-11-30T03:46:23.035Z,7.20
2022-11-30T03:48:55.763Z,8.20
2022-11-30T03:51:28.816Z,8.02
2022-11-30T03:54:02.168Z,8.13
2022-11-30T03:56:34.883Z,8.52
2022-11-30T03:59:07.767Z,9.73
2022-11-30T04:01:41.235Z,8.32
2022-11-30T04:04:14.487Z,7.60
2022-11-30T04:06:47.428Z,8.13
2022-11-30T04:09:20.481Z,8.57
2022-11-30T04:11:53.456Z,8.05
2022-11-30T04:14:26.352Z,7.57
2022-11-30T04:16:59.454Z,7.28
2022-11-30T04:19:32.210Z,8.40
2022-11-30T04:22:07.983Z,8.55
2022-11-30T04:24:41.035Z,7.90
2022-11-30T04:27:16.579Z,8.38
2022-11-30T04:29:49.954Z,8.50
2022-11-30T04:32:23.128Z,8.00
2022-11-30T04:34:55.962Z,8.00
2022-11-30T04:37:28.807Z,9.07
2022-11-30T04:40:02.988Z,8.63
2022-11-30T04:42:35.866Z,7.72
2022-11-30T04:45:10.257Z,9.63
2022-11-30T04:47:43.332Z,8.80
2022-11-30T04:50:17.431Z,8.95
2022-11-30T04:52:50.545Z,8.02
2022-11-30T04:55:24.619Z,8.52
2022-11-30T04:57:57.505Z,8.90
2022-11-30T05:00:31.081Z,9.50
2022-11-30T05:03:04.296Z,9.27
2022-11-30T05:05:37.394Z,8.80
2022-11-30T05:08:10.364Z,9.38
2022-11-30T05:10:43.098Z,8.27
2022-11-30T05:13:16.011Z,8.18
2022-11-30T05:15:48.983Z,8.20
2022-11-30T05:18:25.152Z,8.43
2022-11-30T05:20:58.246Z,8.63
2022-11-30T05:23:31.024Z,8.93
2022-11-30T05:26:04.639Z,7.88
2022-11-30T05:28:37.509Z,8.23
2022-11-30T05:31:10.401Z,8.10
2022-11-30T05:33:44.451Z,8.80
2022-11-30T05:36:17.409Z,8.35
2022-11-30T05:38:50.569Z,8.07
2022-11-30T05:41:23.645Z,8.52
2022-11-30T05:43:57.125Z,7.55
2022-11-30T05:46:30.318Z,8.43
2022-11-30T05:49:03.332Z,8.30
2022-11-30T05:51:36.634Z,8.98
2022-11-30T05:54:10.050Z,7.93
2022-11-30T05:56:43.239Z,7.78
2022-11-30T05:59:16.018Z,8.05
2022-11-30T06:01:49.519Z,9.07
2022-11-30T06:04:22.706Z,7.75
2022-11-30T06:06:55.988Z,7.93
2022-11-30T06:09:29.575Z,7.53
2022-11-30T06:12:02.373Z,8.25
2022-11-30T06:14:35.115Z,9.35
2022-11-30T06:17:07.775Z,8.35
2022-11-30T06:19:40.509Z,8.45
2022-11-30T06:22:13.446Z,7.88
2022-11-30T06:24:46.453Z,7.50
2022-11-30T06:27:19.373Z,7.95
2022-11-30T06:29:52.312Z,8.05
2022-11-30T06:32:27.576Z,7.80
2022-11-30T06:35:00.424Z,8.75
2022-11-30T06:37:35.983Z,8.35
2022-11-30T06:40:11.789Z,8.82
2022-11-30T06:42:44.692Z,7.70
2022-11-30T06:45:17.691Z,8.25
2022-11-30T06:47:50.666Z,7.88
2022-11-30T06:50:24.302Z,8.13
2022-11-30T06:52:59.192Z,7.60
2022-11-30T06:55:35.481Z,8.15
2022-11-30T06:58:10.430Z,7.88
2022-11-30T07:00:46.347Z,8.10
2022-11-30T07:03:19.019Z,7.80
2022-11-30T07:05:52.022Z,7.85
2022-11-30T07:08:24.799Z,7.72
2022-11-30T07:11:00.551Z,7.93
2022-11-30T07:13:33.951Z,8.90
2022-11-30T07:16:11.277Z,9.30
2022-11-30T07:18:44.063Z,8.07
2022-11-30T07:21:17.301Z,7.93
2022-11-30T07:24:08.815Z,8.27
2022-11-30T07:26:41.994Z,8.40
2022-11-30T07:29:15.177Z,7.90
2022-11-30T07:31:52.450Z,7.78
2022-11-30T07:34:25.563Z,7.63
2022-11-30T07:36:58.586Z,8.40
2022-11-30T07:39:31.558Z,8.63
2022-11-30T07:42:04.323Z,8.15
2022-11-30T07:44:36.923Z,8.60
2022-11-30T07:47:09.865Z,8.43
2022-11-30T07:49:42.678Z,7.85
2022-11-30T07:52:15.547Z,7.68
2022-11-30T07:54:48.597Z,8.90
2022-11-30T07:57:21.279Z,8.93
2022-11-30T07:59:53.926Z,9.65
2022-11-30T08:02:26.656Z,8.80
2022-11-30T08:04:59.634Z,8.75
2022-11-30T08:07:32.390Z,8.55
2022-11-30T08:10:06.944Z,8.52
2022-11-30T08:12:39.654Z,9.20
2022-11-30T08:15:19.922Z,9.40
2022-11-30T08:17:55.316Z,8.68
2022-11-30T08:20:27.953Z,9.63
2022-11-30T08:23:00.703Z,9.68
2022-11-30T08:25:35.747Z,8.20
2022-11-30T08:28:08.550Z,9.57
2022-11-30T08:30:41.236Z,8.95
2022-11-30T08:33:14.511Z,10.02
2022-11-30T08:35:47.161Z,9.27
2022-11-30T08:38:19.832Z,9.45
2022-11-30T08:40:58.629Z,10.60
2022-11-30T08:43:32.400Z,11.70
2022-11-30T08:46:34.616Z,10.65
2022-11-30T08:54:49.848Z,9.05
2022-11-30T08:57:23.184Z,8.82
2022-11-30T08:59:56.003Z,9.52
2022-11-30T09:02:28.767Z,9.27
2022-11-30T09:05:01.669Z,9.50
2022-11-30T09:07:34.499Z,9.43
2022-11-30T09:10:08.666Z,9.95
2022-11-30T09:12:42.131Z,8.95
2022-11-30T09:15:15.140Z,8.98
2022-11-30T09:17:47.924Z,9.35
2022-11-30T09:20:20.872Z,9.82
2022-11-30T09:22:53.918Z,9.27
2022-11-30T09:25:26.728Z,9.77
2022-11-30T09:27:59.331Z,8.75
2022-11-30T09:30:32.325Z,9.23
2022-11-30T09:33:05.246Z,8.70
2022-11-30T09:35:38.107Z,9.32
2022-11-30T09:38:11.176Z,9.80
2022-11-30T09:40:44.309Z,9.70
2022-11-30T09:43:51.563Z,9.93
2022-11-30T09:46:41.545Z,9.63
2022-11-30T09:49:24.954Z,8.48
2022-11-30T09:52:04.727Z,9.27
2022-11-30T09:54:42.278Z,10.20
2022-11-30T09:57:29.894Z,10.35
2022-11-30T10:00:23.933Z,8.93
2022-11-30T10:03:02.515Z,9.15
2022-11-30T10:05:45.731Z,9.02
2022-11-30T10:08:50.715Z,10.23
2022-11-30T10:11:43.879Z,9.43
2022-11-30T10:14:31.670Z,8.77
2022-11-30T10:17:37.356Z,9.73
2022-11-30T10:20:39.909Z,13.65
2022-11-30T10:24:10.295Z,10.13
2022-11-30T10:26:57.231Z,9.93
2022-11-30T10:29:43.637Z,9.60
2022-11-30T10:32:35.813Z,10.82
2022-11-30T10:35:52.722Z,10.20
2022-11-30T10:38:34.427Z,9.35
2022-11-30T10:41:31.528Z,10.23
2022-11-30T10:44:18.338Z,8.77
2022-11-30T10:47:12.072Z,10.82
2022-11-30T10:49:54.104Z,10.65
2022-11-30T10:52:39.265Z,8.63
2022-11-30T10:55:27.113Z,10.13
2022-11-30T10:58:15.034Z,9.93
2022-11-30T11:01:09.193Z,10.20
2022-11-30T11:03:42.284Z,9.02
2022-11-30T11:06:25.688Z,9.23
2022-11-30T11:08:58.843Z,8.30
2022-11-30T11:11:39.695Z,7.20
2022-11-30T11:14:23.663Z,8.35
2022-11-30T11:17:07.376Z,8.95
2022-11-30T11:19:43.796Z,9.10
2022-11-30T11:22:27.296Z,7.07
2022-11-30T11:25:24.453Z,7.35
2022-11-30T11:28:12.821Z,7.05
2022-11-30T11:30:45.533Z,9.43
2022-11-30T11:33:30.518Z,9.05
2022-11-30T11:36:09.237Z,10.07
2022-11-30T11:38:48.817Z,10.07
2022-11-30T11:41:36.446Z,9.20
2022-11-30T11:44:09.714Z,9.05
2022-11-30T11:47:09.040Z,9.05
2022-11-30T11:49:42.341Z,8.45
2022-11-30T11:52:18.888Z,8.63
2022-11-30T11:55:03.569Z,9.82
2022-11-30T11:57:54.675Z,8.25
2022-11-30T12:00:35.696Z,7.60
2022-11-30T12:03:35.606Z,7.95
2022-11-30T12:06:27.277Z,8.25
2022-11-30T12:09:36.939Z,8.43
2022-11-30T12:12:14.462Z,8.57
2022-11-30T12:14:59.179Z,8.48
2022-11-30T12:17:49.067Z,9.00
2022-11-30T12:21:29.806Z,8.90
2022-11-30T12:24:35.889Z,9.35
2022-11-30T12:27:54.082Z,9.02
2022-11-30T12:31:12.965Z,9.65
2022-11-30T12:34:24.969Z,9.50
2022-11-30T12:37:44.390Z,9.52
2022-11-30T12:41:05.231Z,8.48
2022-11-30T12:44:11.408Z,9.52
2022-11-30T12:47:15.997Z,8.73
2022-11-30T12:50:04.871Z,9.65
2022-11-30T12:53:12.975Z,9.63
2022-11-30T12:56:14.602Z,8.85
2022-11-30T12:59:32.334Z,8.10
2022-11-30T13:02:37.419Z,9.27
2022-11-30T13:05:24.512Z,8.85
2022-11-30T13:08:42.998Z,8.93
2022-11-30T13:11:41.319Z,8.85
2022-11-30T13:14:31.881Z,9.30
2022-11-30T13:17:15.707Z,8.60
2022-11-30T13:20:10.356Z,9.23
2022-11-30T13:23:05.716Z,9.15
2022-11-30T13:26:07.771Z,9.20
2022-11-30T13:28:44.558Z,8.63
2022-11-30T13:31:34.281Z,8.55
2022-11-30T13:34:28.526Z,8.45
2022-11-30T13:37:09.973Z,8.50
2022-11-30T13:40:04.704Z,8.95
2022-11-30T13:42:50.254Z,8.95
2022-11-30T13:45:37.059Z,9.02
2022-11-30T13:48:42.091Z,9.90
2022-11-30T13:51:39.895Z,10.05
2022-11-30T13:54:47.663Z,9.02
2022-11-30T13:57:29.483Z,9.00
2022-11-30T14:00:30.080Z,9.02
2022-11-30T14:03:20.856Z,8.95
2022-11-30T14:06:04.640Z,9.40
2022-11-30T14:08:38.906Z,9.68
2022-11-30T14:11:17.700Z,8.85
2022-11-30T14:13:53.954Z,9.55
2022-11-30T14:16:30.354Z,9.25
2022-11-30T14:19:06.513Z,7.70
2022-11-30T14:24:25.109Z,7.65
2022-11-30T14:27:00.098Z,9.80
2022-11-30T14:29:39.669Z,10.18
2022-11-30T14:32:50.613Z,10.70
2022-11-30T14:35:23.933Z,10.20
2022-11-30T14:38:00.107Z,8.82
2022-11-30T14:43:17.724Z,8.82
2022-11-30T14:46:12.955Z,8.85
2022-11-30T14:49:19.514Z,9.05
2022-11-30T14:52:05.608Z,9.15
2022-11-30T14:55:09.385Z,9.15
2022-11-30T14:58:07.248Z,8.98
2022-11-30T15:00:45.138Z,9.38
2022-11-30T15:03:26.295Z,8.60
2022-11-30T15:06:07.144Z,8.70
2022-11-30T15:08:50.795Z,7.47
2022-11-30T15:11:39.058Z,9.57
2022-11-30T15:14:13.050Z,8.77
2022-11-30T15:17:01.144Z,8.95
2022-11-30T15:19:34.941Z,8.15
2022-11-30T15:22:26.390Z,8.68
2022-11-30T15:24:59.845Z,7.88
2022-11-30T15:27:40.259Z,8.45
2022-11-30T15:30:20.270Z,7.53
2022-11-30T15:32:55.858Z,8.73
2022-11-30T15:35:57.035Z,9.68
2022-11-30T15:38:27.595Z,8.15
2022-11-30T15:41:22.929Z,9.15
2022-11-30T15:44:00.579Z,7.85
2022-11-30T15:46:46.648Z,8.20
2022-11-30T15:49:36.192Z,7.28
2022-11-30T15:54:55.418Z,8.98
2022-11-30T15:58:00.115Z,8.57
2022-11-30T16:00:35.136Z,8.27
2022-11-30T16:03:15.817Z,9.25
2022-11-30T16:06:11.754Z,7.93
2022-11-30T16:08:48.283Z,7.63
2022-11-30T16:11:23.689Z,7.97
2022-11-30T16:13:59.453Z,8.10
2022-11-30T16:16:40.066Z,8.52
2022-11-30T16:19:12.869Z,8.00
2022-11-30T16:21:45.946Z,8.52
2022-11-30T16:24:25.596Z,8.75
2022-11-30T16:26:59.884Z,8.85
2022-11-30T16:29:32.998Z,8.23
2022-11-30T16:32:07.087Z,6.97
2022-11-30T16:34:44.011Z,6.90
2022-11-30T16:37:17.461Z,8.02
2022-11-30T16:39:52.680Z,8.45
2022-11-30T16:42:28.724Z,6.88
2022-11-30T16:45:01.557Z,6.93
2022-11-30T16:47:37.077Z,7.38
2022-11-30T16:50:12.471Z,8.85
2022-11-30T16:52:45.542Z,8.48
2022-11-30T16:55:23.021Z,7.47
2022-11-30T16:57:55.851Z,7.32
2022-11-30T17:00:29.025Z,8.75
2022-11-30T17:03:18.092Z,8.35
2022-11-30T17:05:51.226Z,8.00
2022-11-30T17:08:24.204Z,7.78
2022-11-30T17:10:57.226Z,9.00
2022-11-30T17:13:32.468Z,8.10
2022-11-30T17:16:08.978Z,7.78
2022-11-30T17:18:42.127Z,7.78
2022-11-30T17:21:18.335Z,7.28
2022-11-30T17:23:51.325Z,7.47
2022-11-30T17:26:24.342Z,7.35
2022-11-30T17:28:57.266Z,8.93
2022-11-30T17:31:32.674Z,7.68
2022-11-30T17:34:06.760Z,7.85
2022-11-30T17:36:39.629Z,7.95
2022-11-30T17:39:12.494Z,7.75
2022-11-30T17:41:46.846Z,7.88
2022-11-30T17:44:19.590Z,7.63
2022-11-30T17:46:55.199Z,7.80
2022-11-30T17:49:32.826Z,7.20
2022-11-30T17:52:05.889Z,7.55
2022-11-30T17:54:38.795Z,8.20
2022-11-30T17:57:11.599Z,6.43
2022-11-30T17:59:44.580Z,7.95
2022-11-30T18:02:17.321Z,8.63
2022-11-30T18:04:50.155Z,7.55
2022-11-30T18:07:23.432Z,8.48
2022-11-30T18:09:56.508Z,7.70
2022-11-30T18:12:29.350Z,8.18
2022-11-30T18:15:02.195Z,9.02
2022-11-30T18:17:35.535Z,7.90
2022-11-30T18:20:08.924Z,7.72
2022-11-30T18:22:41.492Z,7.43
2022-11-30T18:25:15.565Z,7.15
2022-11-30T18:27:51.824Z,6.93
2022-11-30T18:32:57.107Z,7.22
2022-11-30T18:35:29.872Z,6.90
2022-11-30T18:38:02.698Z,7.72
2022-11-30T18:40:35.524Z,7.45
2022-11-30T18:43:08.510Z,8.02
2022-11-30T18:45:41.248Z,8.25
2022-11-30T18:48:14.031Z,8.25
2022-11-30T18:50:46.643Z,9.80
2022-11-30T18:53:19.281Z,9.57
2022-11-30T18:55:52.078Z,9.18
2022-11-30T18:58:26.866Z,10.48
2022-11-30T19:01:12.271Z,9.43
2022-11-30T19:03:54.108Z,9.88
2022-11-30T19:06:30.003Z,8.18
2022-11-30T19:09:08.754Z,9.15
2022-11-30T19:11:43.259Z,9.43
2022-11-30T19:14:17.791Z,8.63
2022-11-30T19:16:50.618Z,8.95
2022-11-30T19:19:23.480Z,8.70
2022-11-30T19:21:58.325Z,8.30
2022-11-30T19:24:34.115Z,8.63
2022-11-30T19:27:06.998Z,9.60
2022-11-30T19:29:39.910Z,9.18
2022-11-30T19:32:12.673Z,8.98
2022-11-30T19:34:45.825Z,8.20
2022-11-30T19:37:18.932Z,9.10
2022-11-30T19:39:51.492Z,9.35
2022-11-30T19:42:24.174Z,9.32
2022-11-30T19:44:56.898Z,8.70
2022-11-30T19:47:30.029Z,9.10
2022-11-30T19:50:03.079Z,10.23
2022-11-30T19:52:35.647Z,8.63
2022-11-30T19:55:08.850Z,9.40
2022-11-30T19:57:41.522Z,9.27
2022-11-30T20:00:14.781Z,8.95
2022-11-30T20:02:49.563Z,9.93
2022-11-30T20:05:22.185Z,9.85
2022-11-30T20:07:54.950Z,9.45
2022-11-30T20:10:31.926Z,9.38
2022-11-30T20:13:04.764Z,9.25
2022-11-30T20:15:39.694Z,8.50
2022-11-30T20:18:12.417Z,8.95
2022-11-30T20:20:45.025Z,9.20
2022-11-30T20:23:17.739Z,9.10
2022-11-30T20:25:54.466Z,9.30
2022-11-30T20:28:27.606Z,9.32
2022-11-30T20:31:03.092Z,8.95
2022-11-30T20:33:38.040Z,9.35
2022-11-30T20:36:12.891Z,9.65
2022-11-30T20:38:45.699Z,9.13
2022-11-30T20:41:24.893Z,9.07
2022-11-30T20:43:57.981Z,8.60
2022-11-30T20:46:35.181Z,9.63
2022-11-30T20:49:18.643Z,10.35
2022-11-30T20:51:51.315Z,9.93
2022-11-30T20:54:23.994Z,9.05
2022-11-30T20:56:58.790Z,9.77
2022-11-30T20:59:31.387Z,9.30
2022-11-30T21:02:04.356Z,9.73
2022-11-30T21:04:37.187Z,9.55
2022-11-30T21:07:10.300Z,10.35
2022-11-30T21:09:43.345Z,9.20
2022-11-30T21:12:16.138Z,9.88
2022-11-30T21:14:49.741Z,9.65
2022-11-30T21:17:22.661Z,11.32
2022-11-30T21:19:55.386Z,10.57
2022-11-30T21:22:28.612Z,9.93
2022-11-30T21:25:01.351Z,10.15
2022-11-30T21:27:35.285Z,9.05
2022-11-30T21:30:09.365Z,11.00
2022-11-30T21:32:42.195Z,9.73
2022-11-30T21:35:15.107Z,9.35
2022-11-30T21:37:47.681Z,10.18
2022-11-30T21:40:21.466Z,10.23
2022-11-30T21:42:54.341Z,9.43
2022-11-30T21:45:26.976Z,9.32
2022-11-30T21:47:59.688Z,10.32
2022-11-30T21:50:34.682Z,10.05
2022-11-30T21:53:09.577Z,10.13
2022-11-30T21:55:42.211Z,9.93
2022-11-30T21:58:14.908Z,8.95
2022-11-30T22:00:58.151Z,10.77
2022-11-30T22:03:42.951Z,9.63
2022-11-30T22:06:18.836Z,11.07
2022-11-30T22:08:51.869Z,9.52
2022-11-30T22:11:24.481Z,10.10
2022-11-30T22:13:57.187Z,10.25
2022-11-30T22:16:35.644Z,10.68
2022-11-30T22:19:08.865Z,12.27
2022-11-30T22:21:46.798Z,11.23
2022-11-30T22:24:24.815Z,10.43
2022-11-30T22:26:57.452Z,9.90
2022-11-30T22:29:30.101Z,10.38
2022-11-30T22:32:02.658Z,9.57
2022-11-30T22:34:35.457Z,10.60
2022-11-30T22:37:08.104Z,10.70
2022-11-30T22:39:40.770Z,9.57
2022-11-30T22:42:13.381Z,10.32
2022-11-30T22:44:46.022Z,10.18
2022-11-30T22:47:18.581Z,8.65
2022-11-30T22:49:51.676Z,10.13
2022-11-30T22:52:42.228Z,9.10
2022-11-30T22:55:17.398Z,10.38
2022-11-30T22:57:50.215Z,10.18
2022-11-30T23:00:24.269Z,9.60
2022-11-30T23:02:56.958Z,11.80
2022-11-30T23:05:29.762Z,11.05
2022-11-30T23:08:05.664Z,9.75
2022-11-30T23:10:38.312Z,9.85
2022-11-30T23:13:10.892Z,10.90
2022-11-30T23:15:43.482Z,10.80
2022-11-30T23:18:16.350Z,9.60
2022-11-30T23:20:50.267Z,10.90
2022-11-30T23:23:26.104Z,10.40
2022-11-30T23:26:12.626Z,9.98
2022-11-30T23:28:48.166Z,10.90
2022-11-30T23:31:33.853Z,10.18
2022-11-30T23:34:13.459Z,10.38
2022-11-30T23:36:47.108Z,10.75
2022-11-30T23:39:20.806Z,9.75
2022-11-30T23:41:53.495Z,9.98
2022-11-30T23:44:25.985Z,10.80
2022-11-30T23:47:00.360Z,9.85
2022-11-30T23:49:34.383Z,9.00
2022-11-30T23:52:07.010Z,10.27
2022-11-30T23:54:39.721Z,9.52
2022-11-30T23:57:13.079Z,10.80
2022-11-30T23:59:46.173Z,9.57
